sensor_id;sensor_type;location;lat;lon;timestamp;pressure;altitude;pressure_sealevel;temperature
6498;BMP280;3282;48.358;10.958;2022-08-05T00:00:17;96018.84;;;24.55
6498;BMP280;3282;48.358;10.958;2022-08-05T00:02:45;96014.59;;;24.54
6498;BMP280;3282;48.358;10.958;2022-08-05T00:05:21;96010.63;;;24.55
6498;BMP280;3282;48.358;10.958;2022-08-05T00:08:08;95999.69;;;24.55
6498;BMP280;3282;48.358;10.958;2022-08-05T00:10:56;96000.47;;;24.55
6498;BMP280;3282;48.358;10.958;2022-08-05T00:13:30;96004.41;;;24.54
6498;BMP280;3282;48.358;10.958;2022-08-05T00:16:07;96000.16;;;24.53
6498;BMP280;3282;48.358;10.958;2022-08-05T00:18:37;96005.78;;;24.50
6498;BMP280;3282;48.358;10.958;2022-08-05T00:21:04;95996.25;;;24.45
6498;BMP280;3282;48.358;10.958;2022-08-05T00:23:34;95995.19;;;24.42
6498;BMP280;3282;48.358;10.958;2022-08-05T00:26:19;95999.63;;;24.40
6498;BMP280;3282;48.358;10.958;2022-08-05T00:28:45;95988.69;;;24.40
6498;BMP280;3282;48.358;10.958;2022-08-05T00:31:14;95991.41;;;24.40
6498;BMP280;3282;48.358;10.958;2022-08-05T00:33:41;95991.41;;;24.40
6498;BMP280;3282;48.358;10.958;2022-08-05T00:36:27;95989.59;;;24.37
6498;BMP280;3282;48.358;10.958;2022-08-05T00:39:14;95981.44;;;24.27
6498;BMP280;3282;48.358;10.958;2022-08-05T00:41:45;95984.47;;;24.29
6498;BMP280;3282;48.358;10.958;2022-08-05T00:44:22;95981.16;;;24.25
6498;BMP280;3282;48.358;10.958;2022-08-05T00:46:57;95988.47;;;24.19
6498;BMP280;3282;48.358;10.958;2022-08-05T00:49:29;95981.34;;;24.12
6498;BMP280;3282;48.358;10.958;2022-08-05T00:52:09;95982.16;;;24.03
6498;BMP280;3282;48.358;10.958;2022-08-05T00:54:37;95985.34;;;24.02
6498;BMP280;3282;48.358;10.958;2022-08-05T00:57:04;95983.50;;;23.99
6498;BMP280;3282;48.358;10.958;2022-08-05T00:59:30;95979.16;;;23.92
6498;BMP280;3282;48.358;10.958;2022-08-05T01:02:09;95969.31;;;23.76
6498;BMP280;3282;48.358;10.958;2022-08-05T01:04:36;95972.22;;;23.72
6498;BMP280;3282;48.358;10.958;2022-08-05T01:07:07;95976.28;;;23.67
6498;BMP280;3282;48.358;10.958;2022-08-05T01:09:39;95976.78;;;23.57
6498;BMP280;3282;48.358;10.958;2022-08-05T01:12:11;95974.97;;;23.53
6498;BMP280;3282;48.358;10.958;2022-08-05T01:15:00;95977.09;;;23.49
6498;BMP280;3282;48.358;10.958;2022-08-05T01:17:32;95972.22;;;23.44
6498;BMP280;3282;48.358;10.958;2022-08-05T01:29:04;95979.84;;;23.31
6498;BMP280;3282;48.358;10.958;2022-08-05T01:31:44;95970.56;;;23.28
6498;BMP280;3282;48.358;10.958;2022-08-05T01:34:22;95979.53;;;23.29
6498;BMP280;3282;48.358;10.958;2022-08-05T01:36:55;95981.81;;;23.30
6498;BMP280;3282;48.358;10.958;2022-08-05T01:39:26;95981.03;;;23.30
6498;BMP280;3282;48.358;10.958;2022-08-05T01:42:14;95970.88;;;23.30
6498;BMP280;3282;48.358;10.958;2022-08-05T01:44:43;95975.56;;;23.30
6498;BMP280;3282;48.358;10.958;2022-08-05T01:47:20;95973.00;;;23.26
6498;BMP280;3282;48.358;10.958;2022-08-05T01:49:51;95982.84;;;23.33
6498;BMP280;3282;48.358;10.958;2022-08-05T01:52:29;95983.63;;;23.33
6498;BMP280;3282;48.358;10.958;2022-08-05T01:55:01;95983.31;;;23.31
6498;BMP280;3282;48.358;10.958;2022-08-05T01:57:33;95983.00;;;23.29
6498;BMP280;3282;48.358;10.958;2022-08-05T02:00:21;95986.22;;;23.28
6498;BMP280;3282;48.358;10.958;2022-08-05T02:03:13;95970.09;;;23.20
6498;BMP280;3282;48.358;10.958;2022-08-05T02:05:59;95975.41;;;23.24
6498;BMP280;3282;48.358;10.958;2022-08-05T02:08:38;95969.66;;;23.22
6498;BMP280;3282;48.358;10.958;2022-08-05T02:11:24;95975.28;;;23.18
6498;BMP280;3282;48.358;10.958;2022-08-05T02:14:02;95972.25;;;23.16
6498;BMP280;3282;48.358;10.958;2022-08-05T02:16:33;95973.13;;;23.13
6498;BMP280;3282;48.358;10.958;2022-08-05T02:19:13;95980.72;;;23.09
6498;BMP280;3282;48.358;10.958;2022-08-05T02:21:53;95978.91;;;23.06
6498;BMP280;3282;48.358;10.958;2022-08-05T02:24:29;95992.25;;;23.04
6498;BMP280;3282;48.358;10.958;2022-08-05T02:27:00;95986.50;;;23.02
6498;BMP280;3282;48.358;10.958;2022-08-05T02:29:36;95983.47;;;23.00
6498;BMP280;3282;48.358;10.958;2022-08-05T02:32:26;95984.94;;;23.01
6498;BMP280;3282;48.358;10.958;2022-08-05T02:34:59;95976.47;;;22.98
6498;BMP280;3282;48.358;10.958;2022-08-05T02:37:40;95981.34;;;23.04
6498;BMP280;3282;48.358;10.958;2022-08-05T02:40:08;95975.88;;;23.04
6498;BMP280;3282;48.358;10.958;2022-08-05T02:42:36;95974.34;;;23.03
6498;BMP280;3282;48.358;10.958;2022-08-05T02:45:04;95975.28;;;23.00
6498;BMP280;3282;48.358;10.958;2022-08-05T02:47:33;95974.66;;;22.95
6498;BMP280;3282;48.358;10.958;2022-08-05T02:50:22;95967.66;;;22.85
6498;BMP280;3282;48.358;10.958;2022-08-05T02:52:49;95976.00;;;22.81
6498;BMP280;3282;48.358;10.958;2022-08-05T02:55:17;95963.41;;;22.75
6498;BMP280;3282;48.358;10.958;2022-08-05T02:58:04;95970.22;;;22.70
6498;BMP280;3282;48.358;10.958;2022-08-05T03:00:39;95972.63;;;22.68
6498;BMP280;3282;48.358;10.958;2022-08-05T03:03:11;95971.88;;;22.67
6498;BMP280;3282;48.358;10.958;2022-08-05T03:05:42;95965.03;;;22.63
6498;BMP280;3282;48.358;10.958;2022-08-05T03:08:29;95968.06;;;22.65
6498;BMP280;3282;48.358;10.958;2022-08-05T03:10:56;95972.78;;;22.64
6498;BMP280;3282;48.358;10.958;2022-08-05T03:13:43;95959.88;;;22.65
6498;BMP280;3282;48.358;10.958;2022-08-05T03:16:28;95963.69;;;22.67
6498;BMP280;3282;48.358;10.958;2022-08-05T03:18:56;95967.19;;;22.68
6498;BMP280;3282;48.358;10.958;2022-08-05T03:21:23;95973.09;;;22.66
6498;BMP280;3282;48.358;10.958;2022-08-05T03:23:54;95965.34;;;22.65
6498;BMP280;3282;48.358;10.958;2022-08-05T03:26:21;95975.50;;;22.64
6498;BMP280;3282;48.358;10.958;2022-08-05T03:28:58;95976.72;;;22.63
6498;BMP280;3282;48.358;10.958;2022-08-05T03:31:24;95970.03;;;22.55
6498;BMP280;3282;48.358;10.958;2022-08-05T03:34:11;95983.22;;;22.56
6498;BMP280;3282;48.358;10.958;2022-08-05T03:36:38;95995.47;;;22.52
6498;BMP280;3282;48.358;10.958;2022-08-05T03:39:06;95997.56;;;22.48
6498;BMP280;3282;48.358;10.958;2022-08-05T03:41:38;96007.41;;;22.45
6498;BMP280;3282;48.358;10.958;2022-08-05T03:44:12;96009.03;;;22.42
6498;BMP280;3282;48.358;10.958;2022-08-05T03:46:45;96019.19;;;22.42
6498;BMP280;3282;48.358;10.958;2022-08-05T03:49:11;96017.66;;;22.41
6498;BMP280;3282;48.358;10.958;2022-08-05T03:51:54;96008.13;;;22.36
6498;BMP280;3282;48.358;10.958;2022-08-05T03:55:06;96006.00;;;22.40
6498;BMP280;3282;48.358;10.958;2022-08-05T03:57:56;96008.28;;;22.42
6498;BMP280;3282;48.358;10.958;2022-08-05T04:00:25;96006.63;;;22.44
6498;BMP280;3282;48.358;10.958;2022-08-05T04:02:58;96008.59;;;22.44
6498;BMP280;3282;48.358;10.958;2022-08-05T04:05:29;96018.75;;;22.43
6498;BMP280;3282;48.358;10.958;2022-08-05T04:08:01;96014.81;;;22.44
6498;BMP280;3282;48.358;10.958;2022-08-05T04:10:32;96021.31;;;22.47
6498;BMP280;3282;48.358;10.958;2022-08-05T04:13:05;96021.50;;;22.53
6498;BMP280;3282;48.358;10.958;2022-08-05T04:15:32;96019.72;;;22.59
6498;BMP280;3282;48.358;10.958;2022-08-05T04:18:05;95997.28;;;22.55
6498;BMP280;3282;48.358;10.958;2022-08-05T04:20:34;96008.53;;;22.66
6498;BMP280;3282;48.358;10.958;2022-08-05T04:23:01;96013.97;;;22.66
6498;BMP280;3282;48.358;10.958;2022-08-05T04:25:29;96001.41;;;22.69
6498;BMP280;3282;48.358;10.958;2022-08-05T04:28:16;96009.75;;;22.75
6498;BMP280;3282;48.358;10.958;2022-08-05T04:30:43;96017.53;;;22.76
6498;BMP280;3282;48.358;10.958;2022-08-05T04:33:11;96022.34;;;22.72
6498;BMP280;3282;48.358;10.958;2022-08-05T04:35:37;96023.53;;;22.71
6498;BMP280;3282;48.358;10.958;2022-08-05T04:38:24;96017.34;;;22.70
6498;BMP280;3282;48.358;10.958;2022-08-05T04:41:05;96022.22;;;22.76
6498;BMP280;3282;48.358;10.958;2022-08-05T04:43:32;96028.56;;;22.82
6498;BMP280;3282;48.358;10.958;2022-08-05T04:45:59;96012.78;;;22.77
6498;BMP280;3282;48.358;10.958;2022-08-05T04:48:26;96028.28;;;22.89
6498;BMP280;3282;48.358;10.958;2022-08-05T04:50:54;96030.72;;;22.96
6498;BMP280;3282;48.358;10.958;2022-08-05T04:53:37;96035.44;;;23.05
6498;BMP280;3282;48.358;10.958;2022-08-05T04:56:07;96028.34;;;23.08
6498;BMP280;3282;48.358;10.958;2022-08-05T04:58:54;96034.75;;;23.23
6498;BMP280;3282;48.358;10.958;2022-08-05T05:01:20;96030.78;;;23.34
6498;BMP280;3282;48.358;10.958;2022-08-05T05:04:07;96030.19;;;23.48
6498;BMP280;3282;48.358;10.958;2022-08-05T05:06:34;96035.63;;;23.67
6498;BMP280;3282;48.358;10.958;2022-08-05T05:09:14;96041.66;;;23.90
6498;BMP280;3282;48.358;10.958;2022-08-05T05:11:44;96046.31;;;24.17
6498;BMP280;3282;48.358;10.958;2022-08-05T05:14:21;96047.56;;;24.50
6498;BMP280;3282;48.358;10.958;2022-08-05T05:17:00;96051.56;;;25.07
6498;BMP280;3282;48.358;10.958;2022-08-05T05:19:28;96052.84;;;25.51
6498;BMP280;3282;48.358;10.958;2022-08-05T05:22:04;96049.88;;;25.64
6498;BMP280;3282;48.358;10.958;2022-08-05T05:24:50;96051.00;;;25.73
6498;BMP280;3282;48.358;10.958;2022-08-05T05:27:31;96055.84;;;25.78
6498;BMP280;3282;48.358;10.958;2022-08-05T05:30:15;96052.41;;;26.28
6498;BMP280;3282;48.358;10.958;2022-08-05T05:32:59;96053.28;;;26.91
6498;BMP280;3282;48.358;10.958;2022-08-05T05:35:42;96054.53;;;27.37
6498;BMP280;3282;48.358;10.958;2022-08-05T05:38:08;96053.25;;;27.85
6498;BMP280;3282;48.358;10.958;2022-08-05T05:40:40;96064.50;;;28.19
6498;BMP280;3282;48.358;10.958;2022-08-05T05:43:20;96073.03;;;28.22
6498;BMP280;3282;48.358;10.958;2022-08-05T05:46:08;96068.69;;;28.09
6498;BMP280;3282;48.358;10.958;2022-08-05T05:48:45;96075.25;;;27.85
6498;BMP280;3282;48.358;10.958;2022-08-05T05:51:21;96066.50;;;27.60
6498;BMP280;3282;48.358;10.958;2022-08-05T05:53:49;96079.81;;;27.41
6498;BMP280;3282;48.358;10.958;2022-08-05T05:56:27;96088.41;;;27.28
6498;BMP280;3282;48.358;10.958;2022-08-05T05:59:00;96091.56;;;27.21
6498;BMP280;3282;48.358;10.958;2022-08-05T06:01:30;96099.28;;;27.64
6498;BMP280;3282;48.358;10.958;2022-08-05T06:04:07;96086.63;;;28.04
6498;BMP280;3282;48.358;10.958;2022-08-05T06:06:39;96084.97;;;28.51
6498;BMP280;3282;48.358;10.958;2022-08-05T06:09:08;96083.00;;;29.12
6498;BMP280;3282;48.358;10.958;2022-08-05T06:11:52;96063.59;;;29.78
6498;BMP280;3282;48.358;10.958;2022-08-05T06:14:28;96070.75;;;30.50
6498;BMP280;3282;48.358;10.958;2022-08-05T06:16:55;96066.38;;;30.83
6498;BMP280;3282;48.358;10.958;2022-08-05T06:19:23;96064.47;;;31.14
6498;BMP280;3282;48.358;10.958;2022-08-05T06:22:05;96067.25;;;31.50
6498;BMP280;3282;48.358;10.958;2022-08-05T06:24:33;96078.66;;;31.66
6498;BMP280;3282;48.358;10.958;2022-08-05T06:27:00;96070.97;;;31.89
6498;BMP280;3282;48.358;10.958;2022-08-05T06:29:29;96088.06;;;31.88
6498;BMP280;3282;48.358;10.958;2022-08-05T06:32:16;96081.19;;;32.00
6498;BMP280;3282;48.358;10.958;2022-08-05T06:34:55;96086.25;;;31.96
6498;BMP280;3282;48.358;10.958;2022-08-05T06:37:27;96078.69;;;31.96
6498;BMP280;3282;48.358;10.958;2022-08-05T06:40:14;96082.81;;;31.53
6498;BMP280;3282;48.358;10.958;2022-08-05T06:42:48;96097.94;;;31.47
6498;BMP280;3282;48.358;10.958;2022-08-05T06:45:19;96110.28;;;31.40
6498;BMP280;3282;48.358;10.958;2022-08-05T06:48:06;96127.81;;;31.06
6498;BMP280;3282;48.358;10.958;2022-08-05T06:50:52;96134.50;;;30.52
6498;BMP280;3282;48.358;10.958;2022-08-05T06:53:19;96139.28;;;30.23
6498;BMP280;3282;48.358;10.958;2022-08-05T06:55:55;96133.81;;;29.94
6498;BMP280;3282;48.358;10.958;2022-08-05T06:58:21;96141.28;;;29.71
6498;BMP280;3282;48.358;10.958;2022-08-05T07:01:04;96140.94;;;29.29
6498;BMP280;3282;48.358;10.958;2022-08-05T07:03:30;96146.31;;;29.06
6498;BMP280;3282;48.358;10.958;2022-08-05T07:05:59;96142.63;;;28.71
6498;BMP280;3282;48.358;10.958;2022-08-05T07:08:43;96158.84;;;28.58
6498;BMP280;3282;48.358;10.958;2022-08-05T07:11:13;96168.31;;;28.57
6498;BMP280;3282;48.358;10.958;2022-08-05T07:13:42;96182.28;;;28.85
6498;BMP280;3282;48.358;10.958;2022-08-05T07:16:27;96209.47;;;29.15
6498;BMP280;3282;48.358;10.958;2022-08-05T07:19:33;96222.44;;;29.47
6498;BMP280;3282;48.358;10.958;2022-08-05T07:22:20;96224.84;;;30.00
6498;BMP280;3282;48.358;10.958;2022-08-05T07:24:55;96203.78;;;30.54
6498;BMP280;3282;48.358;10.958;2022-08-05T07:27:22;96225.34;;;30.72
6498;BMP280;3282;48.358;10.958;2022-08-05T07:30:09;96221.78;;;31.00
6498;BMP280;3282;48.358;10.958;2022-08-05T07:32:55;96225.94;;;31.36
6498;BMP280;3282;48.358;10.958;2022-08-05T07:35:22;96224.44;;;31.35
6498;BMP280;3282;48.358;10.958;2022-08-05T07:38:09;96228.28;;;31.74
6498;BMP280;3282;48.358;10.958;2022-08-05T07:40:52;96238.81;;;31.75
6498;BMP280;3282;48.358;10.958;2022-08-05T07:43:25;96239.94;;;31.91
6498;BMP280;3282;48.358;10.958;2022-08-05T07:45:52;96239.00;;;31.83
6498;BMP280;3282;48.358;10.958;2022-08-05T07:48:24;96224.97;;;31.75
6498;BMP280;3282;48.358;10.958;2022-08-05T07:51:10;96230.91;;;31.43
6498;BMP280;3282;48.358;10.958;2022-08-05T07:53:57;96250.66;;;30.99
6498;BMP280;3282;48.358;10.958;2022-08-05T07:56:27;96257.47;;;30.93
6498;BMP280;3282;48.358;10.958;2022-08-05T07:59:13;96260.75;;;30.57
6498;BMP280;3282;48.358;10.958;2022-08-05T08:01:40;96254.72;;;30.30
6498;BMP280;3282;48.358;10.958;2022-08-05T08:04:23;96253.72;;;30.44
6498;BMP280;3282;48.358;10.958;2022-08-05T08:07:04;96245.94;;;30.43
6498;BMP280;3282;48.358;10.958;2022-08-05T08:09:33;96241.66;;;30.19
6498;BMP280;3282;48.358;10.958;2022-08-05T08:12:00;96256.19;;;30.02
6498;BMP280;3282;48.358;10.958;2022-08-05T08:14:36;96259.56;;;29.57
6498;BMP280;3282;48.358;10.958;2022-08-05T08:17:06;96254.91;;;29.31
6498;BMP280;3282;48.358;10.958;2022-08-05T08:19:42;96265.19;;;29.31
6498;BMP280;3282;48.358;10.958;2022-08-05T08:22:29;96270.88;;;29.16
6498;BMP280;3282;48.358;10.958;2022-08-05T08:24:57;96257.81;;;29.11
6498;BMP280;3282;48.358;10.958;2022-08-05T08:27:32;96264.94;;;29.29
6498;BMP280;3282;48.358;10.958;2022-08-05T08:30:11;96271.91;;;29.24
6498;BMP280;3282;48.358;10.958;2022-08-05T08:32:58;96268.06;;;29.54
6498;BMP280;3282;48.358;10.958;2022-08-05T08:35:33;96268.47;;;29.29
6498;BMP280;3282;48.358;10.958;2022-08-05T08:38:07;96274.72;;;29.30
6498;BMP280;3282;48.358;10.958;2022-08-05T08:40:41;96277.38;;;29.62
6498;BMP280;3282;48.358;10.958;2022-08-05T08:43:17;96278.69;;;29.78
6498;BMP280;3282;48.358;10.958;2022-08-05T08:46:05;96280.59;;;30.33
6498;BMP280;3282;48.358;10.958;2022-08-05T08:48:35;96284.78;;;31.08
6498;BMP280;3282;48.358;10.958;2022-08-05T08:51:23;96286.25;;;31.26
6498;BMP280;3282;48.358;10.958;2022-08-05T08:54:12;96291.50;;;31.47
6498;BMP280;3282;48.358;10.958;2022-08-05T08:56:39;96285.13;;;31.63
6498;BMP280;3282;48.358;10.958;2022-08-05T08:59:17;96293.06;;;31.90
6498;BMP280;3282;48.358;10.958;2022-08-05T09:01:46;96288.59;;;32.17
6498;BMP280;3282;48.358;10.958;2022-08-05T09:04:26;96280.50;;;32.25
6498;BMP280;3282;48.358;10.958;2022-08-05T09:06:56;96297.84;;;32.31
6498;BMP280;3282;48.358;10.958;2022-08-05T09:09:24;96301.75;;;32.47
6498;BMP280;3282;48.358;10.958;2022-08-05T09:11:57;96301.50;;;32.45
6498;BMP280;3282;48.358;10.958;2022-08-05T09:14:38;96302.97;;;32.82
6498;BMP280;3282;48.358;10.958;2022-08-05T09:17:25;96305.44;;;33.36
6498;BMP280;3282;48.358;10.958;2022-08-05T09:20:09;96304.56;;;33.85
6498;BMP280;3282;48.358;10.958;2022-08-05T09:25:33;96306.34;;;34.34
6498;BMP280;3282;48.358;10.958;2022-08-05T09:28:21;96305.38;;;34.78
6498;BMP280;3282;48.358;10.958;2022-08-05T09:31:16;96309.44;;;34.90
6498;BMP280;3282;48.358;10.958;2022-08-05T09:34:05;96310.50;;;34.73
6498;BMP280;3282;48.358;10.958;2022-08-05T09:36:50;96312.13;;;34.04
6498;BMP280;3282;48.358;10.958;2022-08-05T09:39:25;96310.84;;;34.37
6498;BMP280;3282;48.358;10.958;2022-08-05T09:42:16;96315.16;;;34.52
6498;BMP280;3282;48.358;10.958;2022-08-05T09:44:53;96292.50;;;34.48
6498;BMP280;3282;48.358;10.958;2022-08-05T09:47:26;96303.97;;;34.25
6498;BMP280;3282;48.358;10.958;2022-08-05T09:50:12;96285.69;;;34.76
6498;BMP280;3282;48.358;10.958;2022-08-05T09:53:02;96305.25;;;34.97
6498;BMP280;3282;48.358;10.958;2022-08-05T09:55:34;96298.75;;;34.94
6498;BMP280;3282;48.358;10.958;2022-08-05T09:58:21;96301.75;;;34.83
6498;BMP280;3282;48.358;10.958;2022-08-05T10:01:05;96293.81;;;34.73
6498;BMP280;3282;48.358;10.958;2022-08-05T10:03:39;96303.34;;;34.92
6498;BMP280;3282;48.358;10.958;2022-08-05T10:06:25;96298.75;;;34.67
6498;BMP280;3282;48.358;10.958;2022-08-05T10:08:53;96290.94;;;35.20
6498;BMP280;3282;48.358;10.958;2022-08-05T10:11:21;96281.09;;;35.67
6498;BMP280;3282;48.358;10.958;2022-08-05T10:13:48;96291.00;;;35.75
6498;BMP280;3282;48.358;10.958;2022-08-05T10:16:46;96297.78;;;36.23
6498;BMP280;3282;48.358;10.958;2022-08-05T10:19:19;96299.47;;;36.26
6498;BMP280;3282;48.358;10.958;2022-08-05T10:21:57;96298.66;;;35.96
6498;BMP280;3282;48.358;10.958;2022-08-05T10:24:24;96298.00;;;35.69
6498;BMP280;3282;48.358;10.958;2022-08-05T10:26:52;96300.78;;;35.21
6498;BMP280;3282;48.358;10.958;2022-08-05T10:29:26;96294.38;;;34.72
6498;BMP280;3282;48.358;10.958;2022-08-05T10:32:15;96296.53;;;34.33
6498;BMP280;3282;48.358;10.958;2022-08-05T10:35:01;96301.00;;;34.23
6498;BMP280;3282;48.358;10.958;2022-08-05T10:37:29;96296.88;;;34.10
6498;BMP280;3282;48.358;10.958;2022-08-05T10:42:59;96300.81;;;33.82
6498;BMP280;3282;48.358;10.958;2022-08-05T10:45:26;96303.06;;;33.65
6498;BMP280;3282;48.358;10.958;2022-08-05T10:48:28;96294.94;;;33.86
6498;BMP280;3282;48.358;10.958;2022-08-05T10:51:20;96283.78;;;34.70
6498;BMP280;3282;48.358;10.958;2022-08-05T10:53:59;96283.13;;;35.31
6498;BMP280;3282;48.358;10.958;2022-08-05T10:56:48;96285.13;;;35.79
6498;BMP280;3282;48.358;10.958;2022-08-05T10:59:26;96282.00;;;36.04
6498;BMP280;3282;48.358;10.958;2022-08-05T11:02:13;96284.78;;;36.46
6498;BMP280;3282;48.358;10.958;2022-08-05T11:05:04;96278.91;;;36.58
6498;BMP280;3282;48.358;10.958;2022-08-05T11:07:31;96276.88;;;36.95
6498;BMP280;3282;48.358;10.958;2022-08-05T11:10:22;96275.09;;;36.69
6498;BMP280;3282;48.358;10.958;2022-08-05T11:12:55;96273.56;;;36.39
6498;BMP280;3282;48.358;10.958;2022-08-05T11:15:24;96276.59;;;36.20
6498;BMP280;3282;48.358;10.958;2022-08-05T11:20:52;96263.63;;;36.51
6498;BMP280;3282;48.358;10.958;2022-08-05T11:28:54;96265.22;;;36.39
6498;BMP280;3282;48.358;10.958;2022-08-05T11:31:24;96265.47;;;36.48
6498;BMP280;3282;48.358;10.958;2022-08-05T11:34:14;96262.81;;;35.93
6498;BMP280;3282;48.358;10.958;2022-08-05T11:36:48;96261.78;;;35.82
6498;BMP280;3282;48.358;10.958;2022-08-05T11:39:46;96263.19;;;36.39
6498;BMP280;3282;48.358;10.958;2022-08-05T11:42:15;96260.59;;;36.78
6498;BMP280;3282;48.358;10.958;2022-08-05T11:44:44;96258.25;;;36.53
6498;BMP280;3282;48.358;10.958;2022-08-05T11:47:22;96257.84;;;36.49
6498;BMP280;3282;48.358;10.958;2022-08-05T11:50:09;96249.94;;;36.61
6498;BMP280;3282;48.358;10.958;2022-08-05T11:52:40;96251.94;;;36.53
6498;BMP280;3282;48.358;10.958;2022-08-05T11:55:10;96254.13;;;36.46
6498;BMP280;3282;48.358;10.958;2022-08-05T11:57:44;96254.19;;;36.33
6498;BMP280;3282;48.358;10.958;2022-08-05T12:00:31;96250.44;;;36.52
6498;BMP280;3282;48.358;10.958;2022-08-05T12:03:17;96240.34;;;36.70
6498;BMP280;3282;48.358;10.958;2022-08-05T12:05:59;96240.94;;;36.76
6498;BMP280;3282;48.358;10.958;2022-08-05T12:08:26;96250.84;;;36.92
6498;BMP280;3282;48.358;10.958;2022-08-05T12:10:55;96242.91;;;37.04
6498;BMP280;3282;48.358;10.958;2022-08-05T12:13:23;96235.81;;;36.96
6498;BMP280;3282;48.358;10.958;2022-08-05T12:16:16;96242.13;;;36.96
6498;BMP280;3282;48.358;10.958;2022-08-05T12:18:43;96233.69;;;36.81
6498;BMP280;3282;48.358;10.958;2022-08-05T12:26:42;96236.97;;;36.13
6498;BMP280;3282;48.358;10.958;2022-08-05T12:29:12;96229.97;;;35.99
6498;BMP280;3282;48.358;10.958;2022-08-05T12:31:46;96231.50;;;36.00
6498;BMP280;3282;48.358;10.958;2022-08-05T12:34:20;96226.66;;;36.22
6498;BMP280;3282;48.358;10.958;2022-08-05T12:36:51;96229.09;;;36.25
6498;BMP280;3282;48.358;10.958;2022-08-05T12:39:19;96220.44;;;36.37
6498;BMP280;3282;48.358;10.958;2022-08-05T12:41:46;96216.19;;;36.14
6498;BMP280;3282;48.358;10.958;2022-08-05T12:44:14;96212.66;;;35.71
6498;BMP280;3282;48.358;10.958;2022-08-05T12:46:58;96209.91;;;35.93
6498;BMP280;3282;48.358;10.958;2022-08-05T12:49:38;96204.00;;;35.96
6498;BMP280;3282;48.358;10.958;2022-08-05T12:52:25;96203.53;;;36.13
6498;BMP280;3282;48.358;10.958;2022-08-05T12:55:15;96190.19;;;36.12
6498;BMP280;3282;48.358;10.958;2022-08-05T12:57:42;96196.81;;;36.30
6498;BMP280;3282;48.358;10.958;2022-08-05T13:00:28;96193.59;;;36.26
6498;BMP280;3282;48.358;10.958;2022-08-05T13:03:16;96190.44;;;36.22
6498;BMP280;3282;48.358;10.958;2022-08-05T13:05:46;96183.63;;;36.30
6498;BMP280;3282;48.358;10.958;2022-08-05T13:08:18;96180.16;;;36.45
6498;BMP280;3282;48.358;10.958;2022-08-05T13:10:45;96175.59;;;36.56
6498;BMP280;3282;48.358;10.958;2022-08-05T13:13:19;96177.84;;;36.65
6498;BMP280;3282;48.358;10.958;2022-08-05T13:16:11;96165.66;;;36.76
6498;BMP280;3282;48.358;10.958;2022-08-05T13:18:52;96159.06;;;36.66
6498;BMP280;3282;48.358;10.958;2022-08-05T13:21:25;96168.00;;;36.64
6498;BMP280;3282;48.358;10.958;2022-08-05T13:24:04;96157.59;;;36.28
6498;BMP280;3282;48.358;10.958;2022-08-05T13:26:31;96160.16;;;36.26
6498;BMP280;3282;48.358;10.958;2022-08-05T13:28:57;96167.38;;;35.92
6498;BMP280;3282;48.358;10.958;2022-08-05T13:31:25;96156.66;;;35.75
6498;BMP280;3282;48.358;10.958;2022-08-05T13:34:11;96158.56;;;35.38
6498;BMP280;3282;48.358;10.958;2022-08-05T13:36:52;96158.69;;;35.53
6498;BMP280;3282;48.358;10.958;2022-08-05T13:39:18;96159.97;;;35.73
6498;BMP280;3282;48.358;10.958;2022-08-05T13:42:06;96149.03;;;35.75
6498;BMP280;3282;48.358;10.958;2022-08-05T13:44:39;96148.16;;;35.81
6498;BMP280;3282;48.358;10.958;2022-08-05T13:47:14;96150.91;;;36.02
6498;BMP280;3282;48.358;10.958;2022-08-05T13:50:01;96146.16;;;36.10
6498;BMP280;3282;48.358;10.958;2022-08-05T13:52:31;96150.22;;;36.09
6498;BMP280;3282;48.358;10.958;2022-08-05T13:55:01;96144.34;;;36.21
6498;BMP280;3282;48.358;10.958;2022-08-05T13:57:35;96135.84;;;36.26
6498;BMP280;3282;48.358;10.958;2022-08-05T14:00:17;96136.50;;;36.40
6498;BMP280;3282;48.358;10.958;2022-08-05T14:02:52;96140.06;;;36.48
6498;BMP280;3282;48.358;10.958;2022-08-05T14:05:19;96147.63;;;36.32
6498;BMP280;3282;48.358;10.958;2022-08-05T14:08:05;96137.88;;;36.26
6498;BMP280;3282;48.358;10.958;2022-08-05T14:10:47;96136.94;;;36.23
6498;BMP280;3282;48.358;10.958;2022-08-05T14:13:13;96145.53;;;36.25
6498;BMP280;3282;48.358;10.958;2022-08-05T14:15:41;96140.47;;;36.24
6498;BMP280;3282;48.358;10.958;2022-08-05T14:18:27;96141.09;;;36.30
6498;BMP280;3282;48.358;10.958;2022-08-05T14:20:54;96146.25;;;36.26
6498;BMP280;3282;48.358;10.958;2022-08-05T14:23:21;77880.53;;;-147.00
6498;BMP280;3282;48.358;10.958;2022-08-05T14:25:53;77880.53;;;-147.00
6498;BMP280;3282;48.358;10.958;2022-08-05T14:28:28;77880.53;;;-147.00
6498;BMP280;3282;48.358;10.958;2022-08-05T14:30:56;77880.53;;;-147.00
6498;BMP280;3282;48.358;10.958;2022-08-05T14:33:23;77880.53;;;-147.00
6498;BMP280;3282;48.358;10.958;2022-08-05T14:35:50;77880.53;;;-147.00
6498;BMP280;3282;48.358;10.958;2022-08-05T14:38:20;77880.53;;;-147.00
6498;BMP280;3282;48.358;10.958;2022-08-05T14:41:02;77880.53;;;-147.00
6498;BMP280;3282;48.358;10.958;2022-08-05T14:43:32;77880.53;;;-147.00
6498;BMP280;3282;48.358;10.958;2022-08-05T14:46:19;77880.53;;;-147.00
6498;BMP280;3282;48.358;10.958;2022-08-05T14:48:46;77880.53;;;-147.00
6498;BMP280;3282;48.358;10.958;2022-08-05T14:51:16;77880.53;;;-147.00
6498;BMP280;3282;48.358;10.958;2022-08-05T14:53:43;77880.53;;;-147.00
6498;BMP280;3282;48.358;10.958;2022-08-05T14:56:30;77880.53;;;-147.00
6498;BMP280;3282;48.358;10.958;2022-08-05T14:58:57;77880.53;;;-147.00
6498;BMP280;3282;48.358;10.958;2022-08-05T15:01:23;77880.53;;;-147.00
6498;BMP280;3282;48.358;10.958;2022-08-05T15:04:10;77880.53;;;-147.00
6498;BMP280;3282;48.358;10.958;2022-08-05T15:06:37;77880.53;;;-147.00
6498;BMP280;3282;48.358;10.958;2022-08-05T15:09:05;77880.53;;;-147.00
6498;BMP280;3282;48.358;10.958;2022-08-05T15:11:33;77880.53;;;-147.00
6498;BMP280;3282;48.358;10.958;2022-08-05T15:14:19;77880.53;;;-147.00
6498;BMP280;3282;48.358;10.958;2022-08-05T15:17:06;77880.53;;;-147.00
6498;BMP280;3282;48.358;10.958;2022-08-05T15:19:39;77880.53;;;-147.00
6498;BMP280;3282;48.358;10.958;2022-08-05T15:22:14;77880.53;;;-147.00
6498;BMP280;3282;48.358;10.958;2022-08-05T15:24:41;77880.53;;;-147.00
6498;BMP280;3282;48.358;10.958;2022-08-05T15:27:08;77880.53;;;-147.00
6498;BMP280;3282;48.358;10.958;2022-08-05T15:29:34;77880.53;;;-147.00
6498;BMP280;3282;48.358;10.958;2022-08-05T15:32:07;77880.53;;;-147.00
6498;BMP280;3282;48.358;10.958;2022-08-05T15:34:34;77880.53;;;-147.00
6498;BMP280;3282;48.358;10.958;2022-08-05T15:37:00;77880.53;;;-147.00